Time;durP1;ratioP1;P1;durP2;ratioP2;P2;SDS_P1;SDS_P2;PMS_P1;PMS_P2;Temp;Humidity;BMP_temperature;BMP_pressure;BME280_temperature;BME280_humidity;BME280_pressure;Samples;Min_cycle;Max_cycle;Signal;HPM_P1;HPM_P2
2022/03/20 00:00:33;;;;;;;22.58;11.80;;;5.20;99.90;;;;;;5032153;28;20120;-52
2022/03/20 00:02:58;;;;;;;28.08;12.48;;;5.20;99.90;;;;;;5032026;28;20035;-53
2022/03/20 00:05:24;;;;;;;27.05;12.57;;;5.30;99.90;;;;;;5032058;28;20025;-50
2022/03/20 00:07:50;;;;;;;28.00;12.55;;;5.30;99.90;;;;;;5033259;28;20032;-50
2022/03/20 00:10:16;;;;;;;28.02;13.20;;;5.30;99.90;;;;;;5033236;28;20025;-51
2022/03/20 00:12:42;;;;;;;23.65;12.02;;;5.40;99.90;;;;;;5032347;28;20028;-49
2022/03/20 00:15:09;;;;;;;27.33;11.57;;;5.40;99.90;;;;;;5032154;28;20029;-52
2022/03/20 00:17:36;;;;;;;24.35;12.43;;;5.40;99.90;;;;;;5033185;28;20032;-51
2022/03/20 00:20:03;;;;;;;32.75;12.73;;;5.40;99.90;;;;;;5040585;28;20029;-53
2022/03/20 00:22:30;;;;;;;29.30;12.98;;;5.40;99.90;;;;;;5051790;28;20048;-53
2022/03/20 00:24:56;;;;;;;24.33;12.15;;;5.50;99.90;;;;;;5053171;28;20028;-50
2022/03/20 00:27:21;;;;;;;25.70;11.55;;;5.50;99.90;;;;;;5051649;28;20029;-53
2022/03/20 00:29:47;;;;;;;27.90;12.55;;;5.50;99.90;;;;;;5053252;28;20033;-53
2022/03/20 00:32:13;;;;;;;24.02;11.55;;;5.50;99.90;;;;;;5052862;28;20025;-55
2022/03/20 00:34:39;;;;;;;25.35;12.45;;;5.50;99.90;;;;;;5035607;28;20026;-53
2022/03/20 00:37:06;;;;;;;33.05;13.68;;;5.50;99.90;;;;;;5032560;28;20472;-51
2022/03/20 00:39:33;;;;;;;26.10;12.00;;;5.50;99.90;;;;;;5031816;28;20438;-55
2022/03/20 00:41:58;;;;;;;28.95;12.90;;;5.50;99.90;;;;;;5033002;28;20021;-54
2022/03/20 00:44:24;;;;;;;25.85;12.43;;;5.50;99.90;;;;;;5032062;28;20017;-51
2022/03/20 00:46:50;;;;;;;27.75;12.85;;;5.50;99.90;;;;;;5032949;28;20029;-55
2022/03/20 00:49:16;;;;;;;26.73;12.77;;;5.50;99.90;;;;;;5033041;28;20092;-51
2022/03/20 00:51:42;;;;;;;28.88;13.55;;;5.40;99.90;;;;;;5033172;28;20031;-53
2022/03/20 00:54:09;;;;;;;28.08;12.82;;;5.50;99.90;;;;;;5034251;28;20049;-50
2022/03/20 00:56:34;;;;;;;29.83;12.18;;;5.50;99.90;;;;;;5037220;28;20060;-57
2022/03/20 00:59:00;;;;;;;30.98;12.38;;;5.60;99.90;;;;;;5035348;28;20030;-53
2022/03/20 01:01:28;;;;;;;28.30;12.20;;;5.50;99.90;;;;;;5036701;28;20388;-52
2022/03/20 01:03:54;;;;;;;32.58;14.68;;;5.50;99.90;;;;;;5035297;28;20034;-54
2022/03/20 01:06:21;;;;;;;31.00;13.00;;;5.50;99.90;;;;;;5036367;28;20021;-53
2022/03/20 01:08:47;;;;;;;37.17;15.57;;;5.60;99.90;;;;;;5035271;28;20052;-57
2022/03/20 01:11:12;;;;;;;29.33;13.60;;;5.60;99.90;;;;;;5036400;28;20480;-53
2022/03/20 01:13:38;;;;;;;43.40;17.35;;;5.60;99.90;;;;;;5035177;28;20022;-54
2022/03/20 01:16:06;;;;;;;24.67;11.80;;;5.70;99.90;;;;;;5036268;28;20017;-55
2022/03/20 01:18:31;;;;;;;35.22;14.10;;;5.70;99.90;;;;;;5036302;28;20103;-50
2022/03/20 01:20:57;;;;;;;24.08;12.32;;;5.60;99.90;;;;;;5035428;28;20076;-52
2022/03/20 01:23:22;;;;;;;23.33;12.05;;;5.60;99.90;;;;;;5036265;28;20029;-54
2022/03/20 01:25:49;;;;;;;23.50;12.00;;;5.60;99.90;;;;;;5036399;28;20542;-51
2022/03/20 01:28:18;;;;;;;27.60;12.77;;;5.60;99.90;;;;;;5036143;28;20036;-56
2022/03/20 01:30:45;;;;;;;27.33;13.18;;;5.60;99.90;;;;;;5034742;28;20029;-52
2022/03/20 01:33:11;;;;;;;32.40;12.32;;;5.50;99.90;;;;;;5034874;28;20021;-53
2022/03/20 01:35:37;;;;;;;31.70;12.32;;;5.50;99.90;;;;;;5036314;28;20072;-53
2022/03/20 01:38:03;;;;;;;29.42;13.05;;;5.50;99.90;;;;;;5035965;28;20415;-55
2022/03/20 01:40:29;;;;;;;24.30;12.18;;;5.40;99.90;;;;;;5034683;28;20030;-53
2022/03/20 01:42:54;;;;;;;23.35;12.35;;;5.30;99.90;;;;;;5035892;28;20108;-55
2022/03/20 01:45:23;;;;;;;29.13;12.48;;;5.20;99.90;;;;;;5035922;28;20090;-55
2022/03/20 01:47:50;;;;;;;30.77;12.60;;;5.20;99.90;;;;;;5035759;28;20108;-54
2022/03/20 01:50:17;;;;;;;35.22;13.57;;;5.20;99.90;;;;;;5034745;28;20124;-57
2022/03/20 01:52:47;;;;;;;30.73;13.43;;;5.10;99.90;;;;;;5034753;28;20060;-56
2022/03/20 01:55:15;;;;;;;27.70;12.65;;;5.10;99.90;;;;;;5035296;28;20057;-55
2022/03/20 01:57:42;;;;;;;29.75;13.80;;;5.00;99.90;;;;;;5035488;28;20067;-52
2022/03/20 02:00:09;;;;;;;27.92;12.93;;;5.00;99.90;;;;;;5035549;28;20072;-53
2022/03/20 02:02:35;;;;;;;29.05;12.18;;;5.00;99.90;;;;;;5035787;28;20025;-55
2022/03/20 02:05:02;;;;;;;23.45;12.43;;;5.00;99.90;;;;;;5035709;28;20056;-53
2022/03/20 02:07:29;;;;;;;31.63;12.07;;;5.00;99.90;;;;;;5034496;28;20033;-49
2022/03/20 02:09:56;;;;;;;30.90;12.73;;;5.00;99.90;;;;;;5035668;28;20112;-52
2022/03/20 02:12:22;;;;;;;33.45;13.63;;;4.90;99.90;;;;;;5035604;28;20018;-53
2022/03/20 02:14:48;;;;;;;27.23;12.18;;;4.90;99.90;;;;;;5034131;28;20089;-56
2022/03/20 02:17:13;;;;;;;29.50;13.88;;;4.90;99.90;;;;;;5035110;28;20013;-53
2022/03/20 02:19:41;;;;;;;33.13;13.63;;;4.90;99.90;;;;;;5035073;28;20014;-56
2022/03/20 02:22:07;;;;;;;30.25;12.75;;;5.00;99.90;;;;;;5035415;28;20054;-50
2022/03/20 02:24:41;;;;;;;32.67;13.38;;;4.90;99.90;;;;;;5035058;28;20076;-57
2022/03/20 02:27:24;;;;;;;26.20;12.10;;;4.90;99.90;;;;;;5033850;28;20021;-56
2022/03/20 02:29:56;;;;;;;31.25;13.18;;;4.90;99.90;;;;;;5033715;28;20037;-54
2022/03/20 02:32:29;;;;;;;30.58;13.48;;;4.90;99.90;;;;;;5034999;28;20064;-54
2022/03/20 02:35:05;;;;;;;25.02;12.60;;;4.90;99.90;;;;;;5035263;28;20048;-51
2022/03/20 02:37:32;;;;;;;28.73;12.65;;;4.80;99.90;;;;;;5034067;28;20022;-53
2022/03/20 02:40:01;;;;;;;29.42;13.45;;;4.80;99.90;;;;;;5034777;28;20025;-52
2022/03/20 02:42:27;;;;;;;36.53;14.35;;;4.70;99.90;;;;;;5033255;28;20026;-55
2022/03/20 02:45:00;;;;;;;27.83;12.77;;;4.70;99.90;;;;;;5034388;28;20051;-56
2022/03/20 02:47:38;;;;;;;27.63;12.85;;;4.70;99.90;;;;;;5033212;28;20022;-52
2022/03/20 02:50:09;;;;;;;29.13;12.82;;;4.80;99.90;;;;;;5034784;28;20060;-53
2022/03/20 02:52:53;;;;;;;30.63;13.20;;;4.80;99.90;;;;;;5034644;28;20469;-54
2022/03/20 02:55:25;;;;;;;34.50;14.07;;;4.70;99.90;;;;;;5033323;28;20036;-56
2022/03/20 02:57:54;;;;;;;29.08;12.82;;;4.70;99.90;;;;;;5033545;28;20021;-55
2022/03/20 03:00:24;;;;;;;31.02;13.43;;;4.70;99.90;;;;;;5033172;28;20071;-55
2022/03/20 03:02:51;;;;;;;27.50;13.00;;;4.60;99.90;;;;;;5033246;28;20056;-51
2022/03/20 03:05:19;;;;;;;29.20;13.23;;;4.60;99.90;;;;;;5034345;28;20029;-55
2022/03/20 03:13:17;;;;;;;37.72;13.18;;;4.60;99.90;;;;;;5034428;28;20032;-53
2022/03/20 03:15:43;;;;;;;26.67;11.80;;;4.60;99.90;;;;;;5032389;28;20041;-56
2022/03/20 03:18:09;;;;;;;30.48;13.75;;;4.60;99.90;;;;;;5034017;28;20104;-56
2022/03/20 03:20:35;;;;;;;29.00;14.18;;;4.60;99.90;;;;;;5033655;28;20476;-53
2022/03/20 03:23:02;;;;;;;29.40;13.18;;;4.60;99.90;;;;;;5033075;28;20029;-54
2022/03/20 03:25:27;;;;;;;39.65;13.73;;;4.60;99.90;;;;;;5033812;28;20035;-54
2022/03/20 03:27:54;;;;;;;32.15;12.93;;;4.60;99.90;;;;;;5034007;28;20118;-50
2022/03/20 03:30:19;;;;;;;32.45;13.00;;;4.60;99.90;;;;;;5033951;28;20085;-54
2022/03/20 03:32:45;;;;;;;29.02;13.40;;;4.60;99.90;;;;;;5034173;28;20101;-55
2022/03/20 03:37:59;;;;;;;31.13;15.13;;;4.60;99.90;;;;;;5033826;28;20028;-53
2022/03/20 03:40:25;;;;;;;23.92;13.25;;;4.50;99.90;;;;;;5032830;28;20025;-54
2022/03/20 03:42:51;;;;;;;28.33;13.57;;;4.50;99.90;;;;;;5033785;28;20028;-56
2022/03/20 03:45:17;;;;;;;26.40;13.23;;;4.40;99.90;;;;;;5033732;28;20091;-53
2022/03/20 03:47:43;;;;;;;28.25;13.18;;;4.40;99.90;;;;;;5033610;28;20021;-54
2022/03/20 03:50:10;;;;;;;26.08;12.75;;;4.50;99.90;;;;;;5032203;28;20048;-54
2022/03/20 03:52:36;;;;;;;28.88;13.32;;;4.40;99.90;;;;;;5032283;28;20017;-55
2022/03/20 03:55:03;;;;;;;28.90;13.57;;;4.40;99.90;;;;;;5033505;28;20028;-53
2022/03/20 03:57:29;;;;;;;29.50;13.65;;;4.40;99.90;;;;;;5033098;28;20025;-56
2022/03/20 03:59:54;;;;;;;34.50;14.38;;;4.30;99.90;;;;;;5031809;28;20029;-52
2022/03/20 04:02:21;;;;;;;33.15;14.15;;;4.30;99.90;;;;;;5032418;28;20167;-52
2022/03/20 04:04:47;;;;;;;33.42;14.25;;;4.20;99.90;;;;;;5032207;28;20028;-54
2022/03/20 04:07:18;;;;;;;34.08;15.10;;;4.20;99.90;;;;;;5032052;28;20029;-54
2022/03/20 04:09:44;;;;;;;30.05;13.77;;;4.20;99.90;;;;;;5031741;28;20048;-54
2022/03/20 04:12:13;;;;;;;36.75;14.88;;;4.10;99.90;;;;;;5033361;28;20096;-54
2022/03/20 04:14:40;;;;;;;30.80;13.35;;;4.10;99.90;;;;;;5033261;28;20028;-53
2022/03/20 04:17:06;;;;;;;31.10;14.07;;;4.00;99.90;;;;;;5033284;28;20017;-56
2022/03/20 04:19:32;;;;;;;33.67;14.18;;;4.00;99.90;;;;;;5031938;28;20021;-54
2022/03/20 04:21:59;;;;;;;28.67;13.82;;;4.00;99.90;;;;;;5031930;28;20022;-55
2022/03/20 04:24:25;;;;;;;35.25;14.98;;;4.00;99.90;;;;;;5033471;28;20057;-55
2022/03/20 04:26:52;;;;;;;27.60;13.70;;;4.00;99.90;;;;;;5032225;28;20037;-53
2022/03/20 04:29:20;;;;;;;30.20;13.50;;;4.00;99.90;;;;;;5036561;28;20040;-56
2022/03/20 04:31:47;;;;;;;32.58;14.55;;;4.00;99.90;;;;;;5037203;28;20022;-54
2022/03/20 04:34:12;;;;;;;28.20;14.15;;;4.00;99.90;;;;;;5035851;28;20519;-52
2022/03/20 04:36:38;;;;;;;28.63;12.55;;;4.00;99.90;;;;;;5036087;28;20018;-53
2022/03/20 04:39:04;;;;;;;39.15;13.73;;;4.00;99.90;;;;;;5036139;28;20017;-55
2022/03/20 04:41:30;;;;;;;32.33;14.57;;;4.00;99.90;;;;;;5037024;28;20037;-57
2022/03/20 04:43:57;;;;;;;33.10;13.85;;;4.00;99.90;;;;;;5035674;28;20026;-57
2022/03/20 04:46:22;;;;;;;30.50;13.70;;;4.00;99.90;;;;;;5036799;28;20468;-56
2022/03/20 04:59:45;;;;;;;30.08;13.60;;;4.10;99.90;;;;;;5036801;28;20103;-56
2022/03/20 05:02:11;;;;;;;30.17;13.15;;;4.10;99.90;;;;;;5036715;28;20049;-56
2022/03/20 05:04:37;;;;;;;30.35;13.35;;;4.10;99.90;;;;;;5036679;28;20027;-56
2022/03/20 05:07:04;;;;;;;28.27;13.85;;;4.10;99.90;;;;;;5036184;28;20117;-55
2022/03/20 05:15:51;;;;;;;31.35;13.98;;;4.10;99.90;;;;;;5036727;28;20033;-52
2022/03/20 05:18:19;;;;;;;28.33;12.65;;;4.00;99.90;;;;;;5036756;28;20060;-55
2022/03/20 05:20:52;;;;;;;31.17;13.38;;;4.00;99.90;;;;;;5035281;28;20029;-56
2022/03/20 05:23:19;;;;;;;34.55;14.38;;;4.00;99.90;;;;;;5035076;28;20033;-55
2022/03/20 05:25:44;;;;;;;30.75;14.48;;;4.00;99.90;;;;;;5034911;28;20029;-55
2022/03/20 05:28:10;;;;;;;29.98;13.30;;;4.00;99.90;;;;;;5035856;28;20034;-55
2022/03/20 05:30:36;;;;;;;37.72;14.73;;;4.00;99.90;;;;;;5033687;28;20029;-50
2022/03/20 05:33:01;;;;;;;30.25;15.30;;;4.00;99.90;;;;;;5033622;28;20029;-49
2022/03/20 05:35:27;;;;;;;38.00;13.80;;;4.10;99.90;;;;;;5034895;28;20025;-49
2022/03/20 05:37:53;;;;;;;32.42;13.48;;;4.10;99.90;;;;;;5034817;28;20021;-55
2022/03/20 05:40:18;;;;;;;34.53;14.77;;;4.10;99.90;;;;;;5034678;28;20026;-52
2022/03/20 05:42:44;;;;;;;37.78;15.93;;;4.10;99.90;;;;;;5033609;28;20021;-52
2022/03/20 05:45:11;;;;;;;32.42;13.85;;;4.10;99.90;;;;;;5034602;28;20064;-55
2022/03/20 05:47:37;;;;;;;36.03;15.30;;;4.10;99.90;;;;;;5034637;28;20022;-55
2022/03/20 05:50:05;;;;;;;32.88;14.70;;;4.20;99.90;;;;;;5033418;28;20032;-57
2022/03/20 05:52:31;;;;;;;36.08;15.20;;;4.30;99.90;;;;;;5033362;28;20079;-55
2022/03/20 05:54:59;;;;;;;39.17;15.55;;;4.40;99.90;;;;;;5033412;28;20018;-56
2022/03/20 06:00:16;;;;;;;34.50;15.00;;;4.60;99.90;;;;;;5034951;28;20041;-53
2022/03/20 06:02:58;;;;;;;31.40;14.68;;;4.70;99.90;;;;;;5034753;28;20025;-54
2022/03/20 06:05:23;;;;;;;37.03;15.63;;;4.80;99.90;;;;;;5034478;28;20036;-50
2022/03/20 06:08:16;;;;;;;36.17;15.27;;;4.90;99.90;;;;;;5034366;28;20407;-56
2022/03/20 06:10:43;;;;;;;30.55;13.55;;;5.00;99.90;;;;;;5033017;28;20030;-52
2022/03/20 06:13:28;;;;;;;36.83;16.58;;;5.10;99.90;;;;;;5034251;28;20032;-50
2022/03/20 06:15:57;;;;;;;33.67;15.57;;;5.30;99.90;;;;;;5034200;28;20028;-55
2022/03/20 06:18:25;;;;;;;35.85;15.70;;;5.60;99.90;;;;;;5032974;28;20021;-56
2022/03/20 06:20:51;;;;;;;29.42;15.45;;;5.90;99.90;;;;;;5033748;28;20079;-57
2022/03/20 06:23:17;;;;;;;30.13;15.15;;;6.00;99.90;;;;;;5032893;28;20025;-54
2022/03/20 06:25:43;;;;;;;35.25;15.32;;;6.00;99.90;;;;;;5034077;28;20029;-51
2022/03/20 06:30:05;;;;;;;34.50;16.00;;;6.00;99.90;;;;;;5153118;27;20836;-51
2022/03/20 06:32:31;;;;;;;31.73;15.10;;;5.80;99.90;;;;;;5152432;27;20081;-54
2022/03/20 06:34:56;;;;;;;33.90;15.60;;;5.70;99.90;;;;;;5152382;27;20046;-52
2022/03/20 06:37:22;;;;;;;35.40;16.13;;;5.60;99.90;;;;;;5152257;27;20102;-57
2022/03/20 06:39:47;;;;;;;33.80;15.98;;;5.60;99.90;;;;;;5150998;27;20023;-56
2022/03/20 06:42:13;;;;;;;37.42;17.70;;;5.50;99.90;;;;;;5151198;27;20023;-55
2022/03/20 06:44:39;;;;;;;33.20;15.73;;;5.60;99.90;;;;;;5150858;27;20072;-55
2022/03/20 06:47:05;;;;;;;33.63;17.23;;;5.70;99.90;;;;;;5150880;27;20090;-56
2022/03/20 06:49:30;;;;;;;41.33;17.05;;;5.80;99.90;;;;;;5150795;27;20029;-56
2022/03/20 06:51:56;;;;;;;34.70;15.48;;;5.90;99.90;;;;;;5150849;27;20034;-57
2022/03/20 06:54:21;;;;;;;36.55;16.65;;;6.00;99.90;;;;;;5147216;27;20064;-50
2022/03/20 06:56:47;;;;;;;39.53;17.02;;;6.20;99.90;;;;;;5140960;27;20023;-52
2022/03/20 06:59:15;;;;;;;35.00;16.83;;;6.20;99.90;;;;;;5150606;27;20097;-54
2022/03/20 07:01:40;;;;;;;36.63;16.67;;;6.30;99.90;;;;;;5150538;27;20144;-50
2022/03/20 07:04:06;;;;;;;37.65;17.38;;;6.40;99.90;;;;;;5150504;27;20054;-56
2022/03/20 07:06:32;;;;;;;39.38;17.98;;;6.70;99.90;;;;;;5151585;27;20465;-54
2022/03/20 07:09:00;;;;;;;43.38;18.33;;;6.80;99.90;;;;;;5150294;27;20022;-50
2022/03/20 07:11:32;;;;;;;46.45;20.55;;;7.00;99.90;;;;;;5150529;27;20023;-55
2022/03/20 07:13:58;;;;;;;47.15;20.30;;;7.30;99.90;;;;;;5151996;27;20026;-51
2022/03/20 07:16:29;;;;;;;42.08;19.00;;;7.60;99.90;;;;;;5151528;27;20019;-56
2022/03/20 07:18:55;;;;;;;42.30;20.08;;;8.10;99.90;;;;;;5151275;27;20022;-50
2022/03/20 07:21:23;;;;;;;46.97;20.42;;;8.60;99.90;;;;;;5150409;27;20019;-50
2022/03/20 07:23:48;;;;;;;42.03;20.05;;;9.20;99.90;;;;;;5150122;27;20023;-49
2022/03/20 07:31:42;;;;;;;43.40;20.52;;;9.10;99.90;;;;;;5151440;27;20030;-49
2022/03/20 07:34:08;;;;;;;40.97;19.85;;;9.40;99.90;;;;;;5151585;27;20027;-49
2022/03/20 07:36:34;;;;;;;45.05;19.90;;;10.00;99.90;;;;;;5150185;27;20022;-48
2022/03/20 07:39:00;;;;;;;43.10;20.63;;;10.30;99.90;;;;;;5151201;27;20015;-48
2022/03/20 07:41:25;;;;;;;37.58;19.08;;;10.70;99.90;;;;;;5137434;27;20027;-50
2022/03/20 07:43:51;;;;;;;46.08;20.13;;;11.10;99.90;;;;;;5135993;27;20027;-47
2022/03/20 07:46:17;;;;;;;41.83;19.80;;;11.10;99.90;;;;;;5135179;27;20439;-48
2022/03/20 07:48:43;;;;;;;43.92;19.13;;;11.10;99.90;;;;;;5137695;27;20023;-48
2022/03/20 07:51:08;;;;;;;41.03;20.13;;;11.10;99.90;;;;;;5137137;27;20072;-47
2022/03/20 07:53:34;;;;;;;39.90;19.55;;;11.10;99.90;;;;;;5135821;27;20027;-52
2022/03/20 07:55:59;;;;;;;41.00;19.83;;;10.90;99.90;;;;;;5136891;27;20019;-50
2022/03/20 07:58:25;;;;;;;39.15;20.67;;;10.30;99.90;;;;;;5135697;27;20072;-52
2022/03/20 08:00:51;;;;;;;39.13;19.52;;;9.80;99.90;;;;;;5136968;27;20031;-49
2022/03/20 08:03:17;;;;;;;40.97;18.63;;;9.50;99.90;;;;;;5136867;27;20388;-50
2022/03/20 08:05:42;;;;;;;40.80;19.20;;;9.70;99.90;;;;;;5135615;27;20027;-48
2022/03/20 08:08:14;;;;;;;47.50;20.75;;;9.80;99.90;;;;;;5135612;27;20090;-48
2022/03/20 08:10:40;;;;;;;39.60;19.20;;;10.40;99.90;;;;;;5136873;27;20019;-51
2022/03/20 08:13:05;;;;;;;40.60;19.33;;;11.10;99.90;;;;;;5136769;27;20025;-48
2022/03/20 08:15:31;;;;;;;42.60;19.83;;;11.40;99.90;;;;;;5136890;27;20065;-47
2022/03/20 08:17:57;;;;;;;43.10;19.95;;;11.10;99.90;;;;;;5135199;27;20030;-50
2022/03/20 08:20:23;;;;;;;45.58;21.25;;;11.00;99.90;;;;;;5136621;27;20023;-48
2022/03/20 08:22:48;;;;;;;39.42;19.17;;;10.90;99.90;;;;;;5136490;27;20015;-47
2022/03/20 08:25:14;;;;;;;37.53;19.45;;;10.80;99.90;;;;;;5136695;27;20035;-52
2022/03/20 08:28:13;;;;;;;42.70;19.48;;;10.90;99.90;;;;;;5135083;27;20015;-50
2022/03/20 08:30:41;;;;;;;39.97;19.15;;;10.90;99.90;;;;;;5135281;27;20034;-49
2022/03/20 08:33:07;;;;;;;42.63;21.55;;;11.00;99.90;;;;;;5136581;27;20031;-51
2022/03/20 08:35:33;;;;;;;40.20;19.73;;;11.30;99.90;;;;;;5135040;27;20072;-51
2022/03/20 08:37:59;;;;;;;39.97;20.40;;;11.40;99.90;;;;;;5135032;27;20095;-51
2022/03/20 08:40:25;;;;;;;46.25;21.33;;;11.70;99.90;;;;;;5134894;27;20049;-51
2022/03/20 08:42:53;;;;;;;36.00;19.52;;;12.10;99.80;;;;;;5136293;27;20023;-49
2022/03/20 08:45:20;;;;;;;33.78;19.63;;;12.70;98.20;;;;;;5134773;27;20019;-50
2022/03/20 08:47:46;;;;;;;41.97;19.58;;;12.60;97.60;;;;;;5134837;27;20023;-50
2022/03/20 08:50:14;;;;;;;37.72;19.08;;;12.60;97.10;;;;;;5134774;27;20019;-48
2022/03/20 08:52:44;;;;;;;37.97;19.88;;;13.00;97.10;;;;;;5134625;27;20023;-48
2022/03/20 08:55:11;;;;;;;41.20;19.67;;;13.80;96.70;;;;;;5134673;27;20030;-48
2022/03/20 08:57:41;;;;;;;39.22;20.95;;;14.10;95.00;;;;;;5135793;27;20019;-50
2022/03/20 09:00:12;;;;;;;38.38;20.30;;;13.60;94.30;;;;;;5135354;27;20015;-47
2022/03/20 09:02:38;;;;;;;43.17;20.00;;;13.40;94.60;;;;;;5135724;27;20030;-47
2022/03/20 09:05:05;;;;;;;37.35;20.20;;;13.90;94.70;;;;;;5135669;27;20019;-50
2022/03/20 09:07:31;;;;;;;39.05;20.63;;;14.10;93.20;;;;;;5135628;27;20021;-48
2022/03/20 09:09:57;;;;;;;35.45;20.08;;;14.00;92.60;;;;;;5135592;27;20039;-48
2022/03/20 09:12:23;;;;;;;37.22;20.70;;;14.20;92.50;;;;;;5135922;27;20019;-50
2022/03/20 09:14:48;;;;;;;40.05;21.27;;;14.80;91.80;;;;;;5134340;27;20024;-52
2022/03/20 09:19:59;;;;;;;38.53;21.27;;;14.80;91.60;;;;;;5135646;27;20033;-53
2022/03/20 09:22:28;;;;;;;35.03;20.23;;;15.20;90.80;;;;;;5135338;27;20019;-51
2022/03/20 09:24:53;;;;;;;35.05;19.83;;;15.80;90.90;;;;;;5135364;27;20023;-48
2022/03/20 09:27:19;;;;;;;37.53;21.38;;;16.10;87.90;;;;;;5133979;27;20076;-49
2022/03/20 09:29:45;;;;;;;35.60;20.55;;;16.00;87.30;;;;;;5134184;27;20546;-48
2022/03/20 09:32:11;;;;;;;40.75;22.50;;;15.60;87.50;;;;;;5134338;27;20015;-53
2022/03/20 09:34:37;;;;;;;39.45;21.42;;;15.60;87.70;;;;;;5134087;27;20024;-52
2022/03/20 09:37:03;;;;;;;39.08;20.48;;;14.80;88.50;;;;;;5134813;27;20024;-48
2022/03/20 09:39:29;;;;;;;37.83;20.83;;;15.10;88.70;;;;;;5133806;27;20068;-48
2022/03/20 09:41:55;;;;;;;39.90;21.40;;;15.30;87.90;;;;;;5133802;27;20023;-48
2022/03/20 09:44:23;;;;;;;33.45;18.10;;;15.20;87.70;;;;;;5134061;27;20034;-49
2022/03/20 09:46:49;;;;;;;37.10;21.15;;;15.40;89.10;;;;;;5133814;27;20045;-49
2022/03/20 09:49:16;;;;;;;35.17;21.40;;;16.50;85.40;;;;;;5133536;27;20027;-50
2022/03/20 09:51:43;;;;;;;35.35;21.25;;;16.10;86.60;;;;;;5133622;27;20050;-49
2022/03/20 09:54:13;;;;;;;36.70;20.88;;;16.60;83.90;;;;;;5134831;27;20054;-50
2022/03/20 09:56:42;;;;;;;37.42;20.88;;;16.30;83.60;;;;;;5133578;27;20477;-47
2022/03/20 10:02:30;;;;;;;38.45;20.73;;;17.20;81.20;;;;;;5134810;27;20072;-47
2022/03/20 10:05:01;;;;;;;38.20;21.05;;;16.30;82.10;;;;;;5133375;27;20026;-53
2022/03/20 10:07:29;;;;;;;35.37;19.57;;;14.70;84.20;;;;;;5134570;27;20029;-48
2022/03/20 10:10:13;;;;;;;40.13;21.20;;;15.00;86.70;;;;;;5134808;27;20281;-51
2022/03/20 10:12:43;;;;;;;39.70;19.65;;;15.40;84.80;;;;;;5128049;27;20047;-51
2022/03/20 10:15:10;;;;;;;39.33;21.50;;;15.00;85.10;;;;;;5116117;27;20064;-49
2022/03/20 10:17:36;;;;;;;42.55;21.85;;;14.70;88.40;;;;;;5133474;27;20469;-49
2022/03/20 10:21:00;;;;;;;38.80;20.83;;;14.80;86.50;;;;;;5118906;27;20033;-48
2022/03/20 10:23:41;;;;;;;39.22;20.63;;;14.70;89.30;;;;;;5125339;27;20023;-47
2022/03/20 10:26:11;;;;;;;45.25;21.42;;;14.30;88.30;;;;;;5121800;28;20509;-47
2022/03/20 10:29:01;;;;;;;41.13;20.05;;;13.70;90.10;;;;;;5133039;28;20092;-49
2022/03/20 10:31:26;;;;;;;42.53;21.08;;;13.90;90.30;;;;;;5133121;28;20031;-50
2022/03/20 10:34:09;;;;;;;42.60;20.08;;;13.50;90.30;;;;;;5133026;28;20022;-48
2022/03/20 10:36:35;;;;;;;35.67;19.67;;;13.60;90.50;;;;;;5134244;27;20043;-47
2022/03/20 10:39:02;;;;;;;39.33;19.88;;;13.70;90.60;;;;;;5133326;28;20023;-49
2022/03/20 10:41:38;;;;;;;38.50;20.65;;;13.80;90.70;;;;;;5134411;27;20041;-48
2022/03/20 10:44:18;;;;;;;40.72;20.63;;;13.70;90.90;;;;;;5134223;27;20019;-47
2022/03/20 10:50:10;;;;;;;42.08;20.58;;;13.80;90.90;;;;;;5131205;28;20039;-51
2022/03/20 10:52:36;;;;;;;40.78;19.73;;;13.20;91.50;;;;;;5113572;28;20032;-51
2022/03/20 10:55:10;;;;;;;37.58;17.42;;;13.10;92.60;;;;;;5113073;28;20104;-49
2022/03/20 10:57:36;;;;;;;38.47;19.98;;;13.40;93.40;;;;;;5112677;28;20019;-49
2022/03/20 11:00:07;;;;;;;36.08;17.42;;;13.60;92.00;;;;;;5112211;28;20031;-48
2022/03/20 11:02:37;;;;;;;42.92;21.98;;;14.00;92.00;;;;;;5113182;28;20027;-50
2022/03/20 11:05:03;;;;;;;40.70;19.33;;;14.10;91.80;;;;;;5112542;28;20023;-48
2022/03/20 11:07:28;;;;;;;40.17;20.55;;;13.90;92.40;;;;;;5112521;28;20110;-49
2022/03/20 11:09:55;;;;;;;41.35;19.98;;;13.80;91.50;;;;;;5112458;28;20066;-50
2022/03/20 11:12:32;;;;;;;38.85;20.10;;;13.50;92.00;;;;;;5113528;28;20048;-51
2022/03/20 11:15:06;;;;;;;41.53;20.40;;;13.10;92.50;;;;;;5114104;28;20024;-50
2022/03/20 11:17:43;;;;;;;44.58;19.73;;;13.10;92.90;;;;;;5115932;28;20023;-49
2022/03/20 11:20:12;;;;;;;37.03;19.80;;;12.80;93.50;;;;;;5117208;28;20024;-51
2022/03/20 11:22:46;;;;;;;39.90;19.17;;;13.00;94.00;;;;;;5117478;28;20035;-52
2022/03/20 11:25:12;;;;;;;40.05;19.88;;;12.90;93.90;;;;;;5115951;28;20102;-54
2022/03/20 11:27:45;;;;;;;38.13;20.20;;;13.00;94.30;;;;;;5117258;28;20054;-52
2022/03/20 11:30:13;;;;;;;36.60;17.20;;;13.20;94.10;;;;;;5115320;28;20034;-52
2022/03/20 11:32:39;;;;;;;42.03;19.10;;;13.30;94.60;;;;;;5115727;28;20073;-50
2022/03/20 11:35:06;;;;;;;37.67;19.58;;;13.30;93.90;;;;;;5116980;28;20019;-48
2022/03/20 11:37:42;;;;;;;38.67;19.10;;;13.20;94.10;;;;;;5116893;28;20016;-48
2022/03/20 11:40:12;;;;;;;39.97;20.85;;;13.20;94.80;;;;;;5115961;28;20028;-48
2022/03/20 11:42:39;;;;;;;35.42;17.92;;;13.40;94.50;;;;;;5116355;28;20032;-49
2022/03/20 11:45:05;;;;;;;39.95;20.25;;;13.30;94.30;;;;;;5115447;28;20032;-49
2022/03/20 11:47:41;;;;;;;35.35;18.27;;;13.20;94.80;;;;;;5115279;28;20019;-53
2022/03/20 11:50:10;;;;;;;35.38;19.38;;;13.50;94.80;;;;;;5116608;28;20016;-50
2022/03/20 11:52:55;;;;;;;40.47;18.35;;;13.50;95.20;;;;;;5116637;28;20028;-52
2022/03/20 11:55:37;;;;;;;37.80;19.73;;;13.60;95.80;;;;;;5116297;28;20019;-54
2022/03/20 11:58:09;;;;;;;36.42;19.35;;;13.90;95.30;;;;;;5116740;28;20019;-48
2022/03/20 12:00:39;;;;;;;36.58;19.67;;;13.90;95.30;;;;;;5115074;28;20432;-47
2022/03/20 12:03:10;;;;;;;32.05;17.52;;;13.90;95.40;;;;;;5116589;28;20016;-47
2022/03/20 12:05:48;;;;;;;38.38;19.25;;;14.10;95.30;;;;;;5116374;28;20023;-48
2022/03/20 12:08:42;;;;;;;39.03;19.40;;;14.20;95.40;;;;;;5116182;28;20028;-49
2022/03/20 12:11:31;;;;;;;37.60;19.13;;;13.90;95.60;;;;;;5115041;28;20023;-48
2022/03/20 12:14:33;;;;;;;37.22;19.73;;;13.80;96.20;;;;;;5115223;28;20023;-47
2022/03/20 12:17:00;;;;;;;29.45;15.38;;;13.60;95.90;;;;;;5083721;27;20383;-49
2022/03/20 12:19:44;;;;;;;42.72;19.40;;;13.90;96.20;;;;;;5115991;28;20023;-48
2022/03/20 12:22:30;;;;;;;35.17;17.17;;;14.20;95.80;;;;;;5114924;28;20054;-47
2022/03/20 12:24:57;;;;;;;36.30;18.85;;;14.00;96.00;;;;;;5122102;27;20096;-50
2022/03/20 12:27:23;;;;;;;46.03;20.00;;;14.10;96.00;;;;;;5123712;27;20122;-50
2022/03/20 12:30:15;;;;;;;39.38;19.02;;;14.20;96.60;;;;;;5114419;28;20091;-48
2022/03/20 12:32:47;;;;;;;35.67;17.70;;;14.40;96.30;;;;;;5084073;28;20027;-48
2022/03/20 12:35:15;;;;;;;;;;;14.60;95.90;;;;;;5114978;28;20026;-51
2022/03/20 12:37:43;;;;;;;28.48;15.00;;;14.60;95.60;;;;;;5132692;27;19907;-51
2022/03/20 12:40:09;;;;;;;35.53;17.75;;;14.60;95.90;;;;;;5136569;27;20083;-54
2022/03/20 12:42:40;;;;;;;34.33;17.83;;;14.70;95.60;;;;;;5132294;27;20107;-50
2022/03/20 12:45:08;;;;;;;38.45;18.05;;;14.80;96.00;;;;;;5114612;28;20027;-51
2022/03/20 12:50:59;;;;;;;37.42;18.30;;;14.40;95.50;;;;;;5115799;28;20034;-50
2022/03/20 12:53:37;;;;;;;34.45;18.83;;;14.30;95.80;;;;;;5114195;28;20541;-50
2022/03/20 12:58:47;;;;;;;37.28;18.95;;;14.30;96.20;;;;;;5116012;28;20195;-50
2022/03/20 13:01:13;;;;;;;36.17;19.25;;;14.50;96.00;;;;;;5115134;28;20019;-47
2022/03/20 13:03:40;;;;;;;31.75;17.23;;;14.20;96.10;;;;;;5115405;28;20108;-50
2022/03/20 13:06:06;;;;;;;34.08;16.35;;;14.30;96.60;;;;;;5115139;28;20024;-56
2022/03/20 13:08:35;;;;;;;28.65;15.18;;;14.60;96.70;;;;;;5115132;28;20024;-52
2022/03/20 13:11:48;;;;;;;44.63;19.70;;;14.80;96.40;;;;;;5115080;28;20020;-55
2022/03/20 13:13:58;;;;;;;32.88;17.50;;;15.00;95.20;;;;;;5114822;28;20115;-54
2022/03/20 13:16:26;;;;;;;38.28;19.73;;;15.10;95.80;;;;;;5113940;28;20019;-51
2022/03/20 13:18:51;;;;;;;36.13;18.15;;;15.10;94.70;;;;;;5113987;28;20119;-53
2022/03/20 13:21:17;;;;;;;37.25;18.83;;;14.80;95.40;;;;;;5113547;28;20066;-52
2022/03/20 13:23:45;;;;;;;37.75;19.17;;;14.70;95.30;;;;;;5113992;28;20039;-56
2022/03/20 13:26:17;;;;;;;33.85;18.40;;;14.20;95.30;;;;;;5114679;28;20049;-53
2022/03/20 13:28:43;;;;;;;;;;;13.90;96.50;;;;;;5115404;28;20072;-52
2022/03/20 13:31:20;;;;;;;38.75;18.70;;;13.70;96.40;;;;;;5114870;28;19912;-50